IE-0010 weather

ILAS Wexford
County Wexford, Ireland

Public forecast

Using degrees Celsius for public forecast. Weather courtesy of forecast.io.

Closest aviation weather report (METAR) to ILAS Wexford

Report is more than 2 hours old.

Closest report is Waterford Airport, 16.3 nm (30.2 km) WSW. Retrieved 2020/06/04 20:30 UTC (3 hours ago):

EIWF 042030Z 32008KT 290V360 9999 SCT020 13/10 Q1003

Closest aviation forecast (TAF) to ILAS Wexford

Closest forecast is Dublin Airport, 69.1 nm (127.9 km) NNE. Retrieved 2020/06/04 18:11 UTC (6 hours ago):

TAF EIDW 041700Z 0418/0518 32013KT 9999 FEW017 BKN029 TEMPO 0509/0518 -SHRA SCT020CB PROB30 TEMPO 0509/0512 5000 SHRA BECMG 0511/0513 32018G30KT PROB30 TEMPO 0516/0518 32022G35KT 5000 SHRA